sensor_id;sensor_type;location;lat;lon;timestamp;P1;durP1;ratioP1;P2;durP2;ratioP2
37657;SDS011;23500;53.268;8.308;2023-07-20T00:00:05;1.35;;;1.25;;
37657;SDS011;23500;53.268;8.308;2023-07-20T00:02:31;1.10;;;1.00;;
37657;SDS011;23500;53.268;8.308;2023-07-20T00:04:57;2.65;;;1.17;;
37657;SDS011;23500;53.268;8.308;2023-07-20T00:07:23;1.60;;;1.08;;
37657;SDS011;23500;53.268;8.308;2023-07-20T00:09:49;1.17;;;1.05;;
37657;SDS011;23500;53.268;8.308;2023-07-20T00:12:15;1.00;;;1.00;;
37657;SDS011;23500;53.268;8.308;2023-07-20T00:14:41;1.00;;;0.90;;
37657;SDS011;23500;53.268;8.308;2023-07-20T00:17:06;1.27;;;1.10;;
37657;SDS011;23500;53.268;8.308;2023-07-20T00:19:32;1.10;;;1.00;;
37657;SDS011;23500;53.268;8.308;2023-07-20T00:21:58;1.75;;;1.20;;
37657;SDS011;23500;53.268;8.308;2023-07-20T00:24:24;1.00;;;0.90;;
37657;SDS011;23500;53.268;8.308;2023-07-20T00:26:49;1.05;;;0.95;;
37657;SDS011;23500;53.268;8.308;2023-07-20T00:29:15;0.98;;;0.90;;
37657;SDS011;23500;53.268;8.308;2023-07-20T00:31:41;1.15;;;1.05;;
37657;SDS011;23500;53.268;8.308;2023-07-20T00:34:08;1.48;;;1.15;;
37657;SDS011;23500;53.268;8.308;2023-07-20T00:36:34;1.08;;;0.98;;
37657;SDS011;23500;53.268;8.308;2023-07-20T00:38:59;1.02;;;1.00;;
37657;SDS011;23500;53.268;8.308;2023-07-20T00:41:25;0.95;;;0.95;;
37657;SDS011;23500;53.268;8.308;2023-07-20T00:43:54;1.20;;;1.10;;
37657;SDS011;23500;53.268;8.308;2023-07-20T00:46:21;1.23;;;1.10;;
37657;SDS011;23500;53.268;8.308;2023-07-20T00:48:49;1.08;;;1.08;;
37657;SDS011;23500;53.268;8.308;2023-07-20T00:51:15;1.10;;;1.00;;
37657;SDS011;23500;53.268;8.308;2023-07-20T00:53:41;1.30;;;1.02;;
37657;SDS011;23500;53.268;8.308;2023-07-20T00:56:07;1.48;;;1.38;;
37657;SDS011;23500;53.268;8.308;2023-07-20T00:58:34;1.08;;;1.00;;
37657;SDS011;23500;53.268;8.308;2023-07-20T01:01:00;1.17;;;1.05;;
37657;SDS011;23500;53.268;8.308;2023-07-20T01:03:25;1.15;;;1.05;;
37657;SDS011;23500;53.268;8.308;2023-07-20T01:06:00;1.10;;;1.00;;
37657;SDS011;23500;53.268;8.308;2023-07-20T01:08:48;1.20;;;1.10;;
37657;SDS011;23500;53.268;8.308;2023-07-20T01:14:15;1.00;;;0.90;;
37657;SDS011;23500;53.268;8.308;2023-07-20T01:16:42;1.23;;;1.00;;
37657;SDS011;23500;53.268;8.308;2023-07-20T01:19:09;1.10;;;1.00;;
37657;SDS011;23500;53.268;8.308;2023-07-20T01:21:38;1.05;;;0.88;;
37657;SDS011;23500;53.268;8.308;2023-07-20T01:25:11;1.00;;;1.00;;
37657;SDS011;23500;53.268;8.308;2023-07-20T01:27:14;0.90;;;0.90;;
37657;SDS011;23500;53.268;8.308;2023-07-20T01:32:31;1.10;;;1.00;;
37657;SDS011;23500;53.268;8.308;2023-07-20T01:34:57;1.10;;;1.10;;
37657;SDS011;23500;53.268;8.308;2023-07-20T01:37:24;1.30;;;1.10;;
37657;SDS011;23500;53.268;8.308;2023-07-20T01:39:54;1.05;;;1.00;;
37657;SDS011;23500;53.268;8.308;2023-07-20T01:42:21;1.20;;;1.10;;
37657;SDS011;23500;53.268;8.308;2023-07-20T01:44:50;0.98;;;0.90;;
37657;SDS011;23500;53.268;8.308;2023-07-20T01:47:17;0.80;;;0.80;;
37657;SDS011;23500;53.268;8.308;2023-07-20T01:49:43;1.10;;;1.00;;
37657;SDS011;23500;53.268;8.308;2023-07-20T01:52:08;0.95;;;0.90;;
37657;SDS011;23500;53.268;8.308;2023-07-20T01:54:34;1.25;;;0.85;;
37657;SDS011;23500;53.268;8.308;2023-07-20T01:57:00;1.05;;;1.05;;
37657;SDS011;23500;53.268;8.308;2023-07-20T01:59:25;1.13;;;0.98;;
37657;SDS011;23500;53.268;8.308;2023-07-20T02:01:52;1.10;;;1.00;;
37657;SDS011;23500;53.268;8.308;2023-07-20T02:04:17;1.05;;;0.95;;
37657;SDS011;23500;53.268;8.308;2023-07-20T02:06:43;1.00;;;0.90;;
37657;SDS011;23500;53.268;8.308;2023-07-20T02:09:09;0.80;;;0.80;;
37657;SDS011;23500;53.268;8.308;2023-07-20T02:11:34;0.77;;;0.77;;
37657;SDS011;23500;53.268;8.308;2023-07-20T02:14:00;1.20;;;1.10;;
37657;SDS011;23500;53.268;8.308;2023-07-20T02:16:26;1.20;;;1.10;;
37657;SDS011;23500;53.268;8.308;2023-07-20T02:18:52;1.10;;;1.00;;
37657;SDS011;23500;53.268;8.308;2023-07-20T02:21:18;1.00;;;1.00;;
37657;SDS011;23500;53.268;8.308;2023-07-20T02:23:43;1.33;;;0.80;;
37657;SDS011;23500;53.268;8.308;2023-07-20T02:26:09;0.88;;;0.88;;
37657;SDS011;23500;53.268;8.308;2023-07-20T02:28:35;1.10;;;1.00;;
37657;SDS011;23500;53.268;8.308;2023-07-20T02:31:00;0.90;;;0.90;;
37657;SDS011;23500;53.268;8.308;2023-07-20T02:33:26;1.00;;;1.00;;
37657;SDS011;23500;53.268;8.308;2023-07-20T02:35:52;1.13;;;1.02;;
37657;SDS011;23500;53.268;8.308;2023-07-20T02:38:17;1.00;;;0.90;;
37657;SDS011;23500;53.268;8.308;2023-07-20T02:40:43;1.10;;;1.00;;
37657;SDS011;23500;53.268;8.308;2023-07-20T02:43:09;1.02;;;1.02;;
37657;SDS011;23500;53.268;8.308;2023-07-20T02:45:35;1.10;;;1.05;;
37657;SDS011;23500;53.268;8.308;2023-07-20T02:48:04;1.35;;;0.90;;
37657;SDS011;23500;53.268;8.308;2023-07-20T02:50:33;0.90;;;0.90;;
37657;SDS011;23500;53.268;8.308;2023-07-20T02:52:59;0.98;;;0.90;;
37657;SDS011;23500;53.268;8.308;2023-07-20T02:55:25;0.85;;;0.85;;
37657;SDS011;23500;53.268;8.308;2023-07-20T02:57:51;1.20;;;0.95;;
37657;SDS011;23500;53.268;8.308;2023-07-20T03:00:17;1.42;;;1.00;;
37657;SDS011;23500;53.268;8.308;2023-07-20T03:02:44;1.00;;;0.90;;
37657;SDS011;23500;53.268;8.308;2023-07-20T03:05:13;1.02;;;0.98;;
37657;SDS011;23500;53.268;8.308;2023-07-20T03:07:39;0.77;;;0.77;;
37657;SDS011;23500;53.268;8.308;2023-07-20T03:10:05;1.00;;;1.00;;
37657;SDS011;23500;53.268;8.308;2023-07-20T03:12:34;1.10;;;1.00;;
37657;SDS011;23500;53.268;8.308;2023-07-20T03:15:01;0.98;;;0.98;;
37657;SDS011;23500;53.268;8.308;2023-07-20T03:17:27;0.88;;;0.88;;
37657;SDS011;23500;53.268;8.308;2023-07-20T03:19:53;0.95;;;0.80;;
37657;SDS011;23500;53.268;8.308;2023-07-20T03:22:18;2.00;;;1.10;;
37657;SDS011;23500;53.268;8.308;2023-07-20T03:24:44;0.90;;;0.90;;
37657;SDS011;23500;53.268;8.308;2023-07-20T03:27:09;1.10;;;1.00;;
37657;SDS011;23500;53.268;8.308;2023-07-20T03:29:35;1.10;;;0.90;;
37657;SDS011;23500;53.268;8.308;2023-07-20T03:32:01;0.82;;;0.82;;
37657;SDS011;23500;53.268;8.308;2023-07-20T03:34:27;0.88;;;0.88;;
37657;SDS011;23500;53.268;8.308;2023-07-20T03:36:52;0.93;;;0.88;;
37657;SDS011;23500;53.268;8.308;2023-07-20T03:39:18;0.80;;;0.80;;
37657;SDS011;23500;53.268;8.308;2023-07-20T03:41:44;0.90;;;0.90;;
37657;SDS011;23500;53.268;8.308;2023-07-20T03:44:10;0.93;;;0.90;;
37657;SDS011;23500;53.268;8.308;2023-07-20T03:46:35;0.85;;;0.85;;
37657;SDS011;23500;53.268;8.308;2023-07-20T03:49:01;0.70;;;0.70;;
37657;SDS011;23500;53.268;8.308;2023-07-20T03:51:26;0.82;;;0.82;;
37657;SDS011;23500;53.268;8.308;2023-07-20T03:53:52;0.90;;;0.90;;
37657;SDS011;23500;53.268;8.308;2023-07-20T03:56:18;1.20;;;1.10;;
37657;SDS011;23500;53.268;8.308;2023-07-20T03:58:44;0.80;;;0.80;;
37657;SDS011;23500;53.268;8.308;2023-07-20T04:01:09;0.95;;;0.95;;
37657;SDS011;23500;53.268;8.308;2023-07-20T04:03:35;0.98;;;0.95;;
37657;SDS011;23500;53.268;8.308;2023-07-20T04:06:01;0.80;;;0.80;;
37657;SDS011;23500;53.268;8.308;2023-07-20T04:08:27;1.20;;;0.82;;
37657;SDS011;23500;53.268;8.308;2023-07-20T04:10:53;0.80;;;0.80;;
37657;SDS011;23500;53.268;8.308;2023-07-20T04:13:18;1.23;;;0.90;;
37657;SDS011;23500;53.268;8.308;2023-07-20T04:15:44;0.80;;;0.80;;
37657;SDS011;23500;53.268;8.308;2023-07-20T04:18:10;0.80;;;0.80;;
37657;SDS011;23500;53.268;8.308;2023-07-20T04:20:35;1.00;;;0.90;;
37657;SDS011;23500;53.268;8.308;2023-07-20T04:23:01;0.70;;;0.70;;
37657;SDS011;23500;53.268;8.308;2023-07-20T04:25:27;0.90;;;0.90;;
37657;SDS011;23500;53.268;8.308;2023-07-20T04:27:52;0.77;;;0.77;;
37657;SDS011;23500;53.268;8.308;2023-07-20T04:30:18;0.90;;;0.90;;
37657;SDS011;23500;53.268;8.308;2023-07-20T04:32:45;0.90;;;0.90;;
37657;SDS011;23500;53.268;8.308;2023-07-20T04:35:16;1.23;;;0.80;;
37657;SDS011;23500;53.268;8.308;2023-07-20T04:37:43;1.00;;;0.77;;
37657;SDS011;23500;53.268;8.308;2023-07-20T04:40:12;0.75;;;0.75;;
37657;SDS011;23500;53.268;8.308;2023-07-20T04:42:40;0.82;;;0.82;;
37657;SDS011;23500;53.268;8.308;2023-07-20T04:45:06;1.08;;;0.95;;
37657;SDS011;23500;53.268;8.308;2023-07-20T04:47:32;0.80;;;0.80;;
37657;SDS011;23500;53.268;8.308;2023-07-20T04:49:58;0.80;;;0.80;;
37657;SDS011;23500;53.268;8.308;2023-07-20T04:52:23;0.90;;;0.90;;
37657;SDS011;23500;53.268;8.308;2023-07-20T04:54:49;1.17;;;0.90;;
37657;SDS011;23500;53.268;8.308;2023-07-20T04:57:15;0.73;;;0.73;;
37657;SDS011;23500;53.268;8.308;2023-07-20T04:59:40;0.90;;;0.90;;
37657;SDS011;23500;53.268;8.308;2023-07-20T05:02:06;0.93;;;0.90;;
37657;SDS011;23500;53.268;8.308;2023-07-20T05:04:32;1.10;;;1.00;;
37657;SDS011;23500;53.268;8.308;2023-07-20T05:06:57;1.42;;;0.95;;
37657;SDS011;23500;53.268;8.308;2023-07-20T05:09:23;2.95;;;2.15;;
37657;SDS011;23500;53.268;8.308;2023-07-20T05:11:49;0.93;;;0.90;;
37657;SDS011;23500;53.268;8.308;2023-07-20T05:14:14;1.30;;;1.00;;
37657;SDS011;23500;53.268;8.308;2023-07-20T05:16:40;1.55;;;1.00;;
37657;SDS011;23500;53.268;8.308;2023-07-20T05:19:06;1.33;;;1.15;;
37657;SDS011;23500;53.268;8.308;2023-07-20T05:21:31;2.00;;;1.00;;
37657;SDS011;23500;53.268;8.308;2023-07-20T05:23:57;1.55;;;0.93;;
37657;SDS011;23500;53.268;8.308;2023-07-20T05:26:22;2.95;;;1.00;;
37657;SDS011;23500;53.268;8.308;2023-07-20T05:28:48;2.17;;;1.10;;
37657;SDS011;23500;53.268;8.308;2023-07-20T05:31:14;1.17;;;0.90;;
37657;SDS011;23500;53.268;8.308;2023-07-20T05:33:39;1.70;;;1.10;;
37657;SDS011;23500;53.268;8.308;2023-07-20T05:36:05;1.02;;;0.88;;
37657;SDS011;23500;53.268;8.308;2023-07-20T05:38:30;2.38;;;1.30;;
37657;SDS011;23500;53.268;8.308;2023-07-20T05:40:59;1.27;;;0.90;;
37657;SDS011;23500;53.268;8.308;2023-07-20T05:43:25;0.95;;;0.82;;
37657;SDS011;23500;53.268;8.308;2023-07-20T05:45:51;1.85;;;0.93;;
37657;SDS011;23500;53.268;8.308;2023-07-20T05:48:17;1.60;;;0.90;;
37657;SDS011;23500;53.268;8.308;2023-07-20T05:50:43;2.75;;;1.00;;
37657;SDS011;23500;53.268;8.308;2023-07-20T05:53:08;1.90;;;1.02;;
37657;SDS011;23500;53.268;8.308;2023-07-20T05:55:34;1.15;;;0.95;;
37657;SDS011;23500;53.268;8.308;2023-07-20T05:58:00;0.80;;;0.80;;
37657;SDS011;23500;53.268;8.308;2023-07-20T06:00:26;1.83;;;0.90;;
37657;SDS011;23500;53.268;8.308;2023-07-20T06:02:54;1.55;;;0.90;;
37657;SDS011;23500;53.268;8.308;2023-07-20T06:05:23;1.80;;;1.10;;
37657;SDS011;23500;53.268;8.308;2023-07-20T06:07:49;2.45;;;1.17;;
37657;SDS011;23500;53.268;8.308;2023-07-20T06:10:15;2.80;;;1.10;;
37657;SDS011;23500;53.268;8.308;2023-07-20T06:12:41;2.17;;;1.15;;
37657;SDS011;23500;53.268;8.308;2023-07-20T06:15:23;2.40;;;1.10;;
37657;SDS011;23500;53.268;8.308;2023-07-20T06:17:54;1.95;;;1.30;;
37657;SDS011;23500;53.268;8.308;2023-07-20T06:20:21;1.15;;;1.05;;
37657;SDS011;23500;53.268;8.308;2023-07-20T06:22:47;2.00;;;1.33;;
37657;SDS011;23500;53.268;8.308;2023-07-20T06:25:13;1.50;;;0.88;;
37657;SDS011;23500;53.268;8.308;2023-07-20T06:27:39;1.52;;;1.08;;
37657;SDS011;23500;53.268;8.308;2023-07-20T06:30:04;1.50;;;1.00;;
37657;SDS011;23500;53.268;8.308;2023-07-20T06:32:30;2.83;;;1.10;;
37657;SDS011;23500;53.268;8.308;2023-07-20T06:34:56;5.00;;;1.00;;
37657;SDS011;23500;53.268;8.308;2023-07-20T06:37:22;1.90;;;0.88;;
37657;SDS011;23500;53.268;8.308;2023-07-20T06:39:48;38.03;;;9.35;;
37657;SDS011;23500;53.268;8.308;2023-07-20T06:42:13;54.58;;;11.68;;
37657;SDS011;23500;53.268;8.308;2023-07-20T06:44:39;36.75;;;9.77;;
37657;SDS011;23500;53.268;8.308;2023-07-20T06:47:04;39.28;;;8.27;;
37657;SDS011;23500;53.268;8.308;2023-07-20T06:49:30;50.80;;;12.90;;
37657;SDS011;23500;53.268;8.308;2023-07-20T06:51:56;95.30;;;22.67;;
37657;SDS011;23500;53.268;8.308;2023-07-20T06:54:22;54.20;;;12.85;;
37657;SDS011;23500;53.268;8.308;2023-07-20T06:56:47;63.90;;;16.75;;
37657;SDS011;23500;53.268;8.308;2023-07-20T06:59:13;69.85;;;17.42;;
37657;SDS011;23500;53.268;8.308;2023-07-20T07:01:39;66.32;;;17.15;;
37657;SDS011;23500;53.268;8.308;2023-07-20T07:04:04;73.07;;;17.73;;
37657;SDS011;23500;53.268;8.308;2023-07-20T07:06:30;55.38;;;13.85;;
37657;SDS011;23500;53.268;8.308;2023-07-20T07:08:56;59.70;;;17.27;;
37657;SDS011;23500;53.268;8.308;2023-07-20T07:11:22;65.93;;;17.40;;
37657;SDS011;23500;53.268;8.308;2023-07-20T07:13:48;66.45;;;17.23;;
37657;SDS011;23500;53.268;8.308;2023-07-20T07:16:16;59.80;;;17.27;;
37657;SDS011;23500;53.268;8.308;2023-07-20T07:18:44;51.85;;;14.75;;
37657;SDS011;23500;53.268;8.308;2023-07-20T07:21:10;61.05;;;16.45;;
37657;SDS011;23500;53.268;8.308;2023-07-20T07:23:37;43.08;;;11.10;;
37657;SDS011;23500;53.268;8.308;2023-07-20T07:26:03;48.35;;;12.88;;
37657;SDS011;23500;53.268;8.308;2023-07-20T07:28:29;48.70;;;13.40;;
37657;SDS011;23500;53.268;8.308;2023-07-20T07:30:55;42.88;;;11.80;;
37657;SDS011;23500;53.268;8.308;2023-07-20T07:33:22;44.58;;;12.50;;
37657;SDS011;23500;53.268;8.308;2023-07-20T07:35:47;46.97;;;14.10;;
37657;SDS011;23500;53.268;8.308;2023-07-20T07:38:14;53.45;;;14.48;;
37657;SDS011;23500;53.268;8.308;2023-07-20T07:40:40;43.03;;;12.70;;
37657;SDS011;23500;53.268;8.308;2023-07-20T07:43:05;47.25;;;12.00;;
37657;SDS011;23500;53.268;8.308;2023-07-20T07:45:34;41.13;;;12.90;;
37657;SDS011;23500;53.268;8.308;2023-07-20T07:48:01;46.67;;;13.90;;
37657;SDS011;23500;53.268;8.308;2023-07-20T07:50:27;41.33;;;11.65;;
37657;SDS011;23500;53.268;8.308;2023-07-20T07:52:53;39.42;;;13.15;;
37657;SDS011;23500;53.268;8.308;2023-07-20T07:55:19;43.08;;;12.95;;
37657;SDS011;23500;53.268;8.308;2023-07-20T07:57:44;44.63;;;13.13;;
37657;SDS011;23500;53.268;8.308;2023-07-20T08:00:12;42.38;;;13.35;;
37657;SDS011;23500;53.268;8.308;2023-07-20T08:02:42;34.40;;;11.65;;
37657;SDS011;23500;53.268;8.308;2023-07-20T08:05:08;36.60;;;11.05;;
37657;SDS011;23500;53.268;8.308;2023-07-20T08:07:35;35.88;;;11.50;;
37657;SDS011;23500;53.268;8.308;2023-07-20T08:10:04;36.03;;;11.07;;
37657;SDS011;23500;53.268;8.308;2023-07-20T08:12:30;31.00;;;10.90;;
37657;SDS011;23500;53.268;8.308;2023-07-20T08:14:56;37.83;;;12.18;;
37657;SDS011;23500;53.268;8.308;2023-07-20T08:17:22;30.98;;;10.07;;
37657;SDS011;23500;53.268;8.308;2023-07-20T08:19:48;31.10;;;10.43;;
37657;SDS011;23500;53.268;8.308;2023-07-20T08:22:13;32.83;;;10.88;;
37657;SDS011;23500;53.268;8.308;2023-07-20T08:24:39;28.42;;;9.52;;
37657;SDS011;23500;53.268;8.308;2023-07-20T08:27:05;28.90;;;10.35;;
37657;SDS011;23500;53.268;8.308;2023-07-20T08:29:31;28.80;;;9.93;;
37657;SDS011;23500;53.268;8.308;2023-07-20T08:31:57;29.20;;;9.50;;
37657;SDS011;23500;53.268;8.308;2023-07-20T08:34:22;27.23;;;9.38;;
37657;SDS011;23500;53.268;8.308;2023-07-20T08:36:48;26.10;;;9.32;;
37657;SDS011;23500;53.268;8.308;2023-07-20T08:39:14;29.55;;;9.88;;
37657;SDS011;23500;53.268;8.308;2023-07-20T08:41:40;26.98;;;9.65;;
37657;SDS011;23500;53.268;8.308;2023-07-20T08:44:08;25.17;;;8.68;;
37657;SDS011;23500;53.268;8.308;2023-07-20T08:46:35;22.10;;;8.23;;
37657;SDS011;23500;53.268;8.308;2023-07-20T08:49:03;30.58;;;8.77;;
37657;SDS011;23500;53.268;8.308;2023-07-20T08:51:31;24.27;;;8.70;;
37657;SDS011;23500;53.268;8.308;2023-07-20T08:53:58;24.15;;;8.57;;
37657;SDS011;23500;53.268;8.308;2023-07-20T08:56:25;26.25;;;8.23;;
37657;SDS011;23500;53.268;8.308;2023-07-20T08:58:54;22.52;;;8.30;;
37657;SDS011;23500;53.268;8.308;2023-07-20T09:01:20;25.70;;;8.27;;
37657;SDS011;23500;53.268;8.308;2023-07-20T09:03:47;26.08;;;8.40;;
37657;SDS011;23500;53.268;8.308;2023-07-20T09:06:13;25.08;;;8.55;;
37657;SDS011;23500;53.268;8.308;2023-07-20T09:08:39;21.10;;;8.57;;
37657;SDS011;23500;53.268;8.308;2023-07-20T09:11:05;21.48;;;8.38;;
37657;SDS011;23500;53.268;8.308;2023-07-20T09:13:34;24.63;;;8.70;;
37657;SDS011;23500;53.268;8.308;2023-07-20T09:16:00;18.98;;;7.63;;
37657;SDS011;23500;53.268;8.308;2023-07-20T09:18:29;25.17;;;8.30;;
37657;SDS011;23500;53.268;8.308;2023-07-20T09:21:03;21.90;;;7.90;;
37657;SDS011;23500;53.268;8.308;2023-07-20T09:23:34;21.95;;;7.68;;
37657;SDS011;23500;53.268;8.308;2023-07-20T09:26:01;21.55;;;7.55;;
37657;SDS011;23500;53.268;8.308;2023-07-20T09:28:50;24.55;;;7.55;;
37657;SDS011;23500;53.268;8.308;2023-07-20T09:31:18;20.75;;;7.53;;
37657;SDS011;23500;53.268;8.308;2023-07-20T09:33:44;22.08;;;7.63;;
37657;SDS011;23500;53.268;8.308;2023-07-20T09:36:11;18.10;;;7.25;;
37657;SDS011;23500;53.268;8.308;2023-07-20T09:38:37;17.90;;;6.38;;
37657;SDS011;23500;53.268;8.308;2023-07-20T09:41:06;19.95;;;7.97;;
37657;SDS011;23500;53.268;8.308;2023-07-20T09:43:33;20.83;;;8.50;;
37657;SDS011;23500;53.268;8.308;2023-07-20T09:46:00;17.73;;;7.28;;
37657;SDS011;23500;53.268;8.308;2023-07-20T09:48:26;17.92;;;6.75;;
37657;SDS011;23500;53.268;8.308;2023-07-20T09:50:52;20.70;;;7.38;;
37657;SDS011;23500;53.268;8.308;2023-07-20T09:53:19;19.58;;;7.38;;
37657;SDS011;23500;53.268;8.308;2023-07-20T09:55:45;16.00;;;6.72;;
37657;SDS011;23500;53.268;8.308;2023-07-20T09:58:12;17.15;;;6.45;;
37657;SDS011;23500;53.268;8.308;2023-07-20T10:00:39;22.35;;;7.55;;
37657;SDS011;23500;53.268;8.308;2023-07-20T10:03:08;19.38;;;7.57;;
37657;SDS011;23500;53.268;8.308;2023-07-20T10:05:36;13.93;;;6.60;;
37657;SDS011;23500;53.268;8.308;2023-07-20T10:08:08;16.00;;;6.80;;
37657;SDS011;23500;53.268;8.308;2023-07-20T10:10:37;16.13;;;6.55;;
37657;SDS011;23500;53.268;8.308;2023-07-20T10:13:06;15.13;;;6.80;;
37657;SDS011;23500;53.268;8.308;2023-07-20T10:15:50;18.95;;;7.13;;
37657;SDS011;23500;53.268;8.308;2023-07-20T10:18:24;19.05;;;6.95;;
37657;SDS011;23500;53.268;8.308;2023-07-20T10:20:54;17.60;;;6.80;;
37657;SDS011;23500;53.268;8.308;2023-07-20T10:23:21;14.90;;;6.60;;
37657;SDS011;23500;53.268;8.308;2023-07-20T10:25:48;16.50;;;6.40;;
37657;SDS011;23500;53.268;8.308;2023-07-20T10:28:15;16.05;;;6.05;;
37657;SDS011;23500;53.268;8.308;2023-07-20T10:30:41;17.17;;;6.57;;
37657;SDS011;23500;53.268;8.308;2023-07-20T10:33:08;17.73;;;6.75;;
37657;SDS011;23500;53.268;8.308;2023-07-20T10:41:49;16.25;;;6.47;;
37657;SDS011;23500;53.268;8.308;2023-07-20T10:44:02;15.57;;;6.05;;
37657;SDS011;23500;53.268;8.308;2023-07-20T10:49:12;14.95;;;6.38;;
37657;SDS011;23500;53.268;8.308;2023-07-20T10:51:43;14.25;;;6.50;;
37657;SDS011;23500;53.268;8.308;2023-07-20T10:56:43;12.50;;;5.70;;
37657;SDS011;23500;53.268;8.308;2023-07-20T10:59:19;13.50;;;5.60;;
37657;SDS011;23500;53.268;8.308;2023-07-20T11:01:48;14.43;;;6.18;;
37657;SDS011;23500;53.268;8.308;2023-07-20T11:04:15;13.52;;;6.03;;
37657;SDS011;23500;53.268;8.308;2023-07-20T11:06:43;13.43;;;5.57;;
37657;SDS011;23500;53.268;8.308;2023-07-20T11:09:10;12.93;;;5.75;;
37657;SDS011;23500;53.268;8.308;2023-07-20T11:11:40;13.30;;;5.90;;
37657;SDS011;23500;53.268;8.308;2023-07-20T11:14:10;16.85;;;6.55;;
37657;SDS011;23500;53.268;8.308;2023-07-20T11:16:46;15.85;;;6.22;;
37657;SDS011;23500;53.268;8.308;2023-07-20T11:19:22;13.65;;;5.57;;
37657;SDS011;23500;53.268;8.308;2023-07-20T11:21:50;13.35;;;5.90;;
37657;SDS011;23500;53.268;8.308;2023-07-20T11:24:17;13.85;;;6.00;;
37657;SDS011;23500;53.268;8.308;2023-07-20T11:26:53;16.52;;;6.20;;
37657;SDS011;23500;53.268;8.308;2023-07-20T11:29:22;12.93;;;5.38;;
37657;SDS011;23500;53.268;8.308;2023-07-20T11:31:50;12.75;;;5.57;;
37657;SDS011;23500;53.268;8.308;2023-07-20T11:34:19;13.20;;;5.65;;
37657;SDS011;23500;53.268;8.308;2023-07-20T11:36:49;11.07;;;5.00;;
37657;SDS011;23500;53.268;8.308;2023-07-20T11:39:16;13.90;;;6.18;;
37657;SDS011;23500;53.268;8.308;2023-07-20T11:41:47;11.02;;;5.43;;
37657;SDS011;23500;53.268;8.308;2023-07-20T11:44:15;13.73;;;5.90;;
37657;SDS011;23500;53.268;8.308;2023-07-20T11:46:46;13.23;;;5.85;;
37657;SDS011;23500;53.268;8.308;2023-07-20T11:49:12;14.93;;;6.00;;
37657;SDS011;23500;53.268;8.308;2023-07-20T11:51:38;13.38;;;5.78;;
37657;SDS011;23500;53.268;8.308;2023-07-20T11:54:06;14.57;;;5.53;;
37657;SDS011;23500;53.268;8.308;2023-07-20T11:56:33;11.38;;;5.50;;
37657;SDS011;23500;53.268;8.308;2023-07-20T11:58:59;11.35;;;5.72;;
37657;SDS011;23500;53.268;8.308;2023-07-20T12:01:26;11.85;;;5.32;;
37657;SDS011;23500;53.268;8.308;2023-07-20T12:04:03;13.02;;;5.43;;
37657;SDS011;23500;53.268;8.308;2023-07-20T12:06:29;13.13;;;5.85;;
37657;SDS011;23500;53.268;8.308;2023-07-20T12:08:56;10.95;;;5.28;;
37657;SDS011;23500;53.268;8.308;2023-07-20T12:11:35;12.23;;;5.50;;
37657;SDS011;23500;53.268;8.308;2023-07-20T12:14:08;11.77;;;5.40;;
37657;SDS011;23500;53.268;8.308;2023-07-20T12:16:35;10.23;;;5.00;;
37657;SDS011;23500;53.268;8.308;2023-07-20T12:19:10;12.73;;;5.65;;
37657;SDS011;23500;53.268;8.308;2023-07-20T12:21:39;11.65;;;5.00;;
37657;SDS011;23500;53.268;8.308;2023-07-20T12:24:07;11.82;;;5.18;;
37657;SDS011;23500;53.268;8.308;2023-07-20T12:26:36;11.13;;;5.13;;
37657;SDS011;23500;53.268;8.308;2023-07-20T12:29:03;12.95;;;5.63;;
37657;SDS011;23500;53.268;8.308;2023-07-20T12:31:29;11.43;;;5.18;;
37657;SDS011;23500;53.268;8.308;2023-07-20T12:33:56;10.65;;;5.53;;
37657;SDS011;23500;53.268;8.308;2023-07-20T12:36:23;8.73;;;4.82;;
37657;SDS011;23500;53.268;8.308;2023-07-20T12:38:49;10.57;;;5.03;;
37657;SDS011;23500;53.268;8.308;2023-07-20T12:41:15;9.70;;;5.03;;
37657;SDS011;23500;53.268;8.308;2023-07-20T12:43:41;12.60;;;5.15;;
37657;SDS011;23500;53.268;8.308;2023-07-20T12:46:08;11.30;;;5.20;;
37657;SDS011;23500;53.268;8.308;2023-07-20T12:48:35;10.45;;;5.32;;
37657;SDS011;23500;53.268;8.308;2023-07-20T12:51:06;12.93;;;5.53;;
37657;SDS011;23500;53.268;8.308;2023-07-20T12:53:32;10.32;;;4.93;;
37657;SDS011;23500;53.268;8.308;2023-07-20T12:56:01;9.75;;;4.70;;
37657;SDS011;23500;53.268;8.308;2023-07-20T12:58:27;9.38;;;4.45;;
37657;SDS011;23500;53.268;8.308;2023-07-20T13:00:53;9.75;;;4.80;;
37657;SDS011;23500;53.268;8.308;2023-07-20T13:03:19;8.95;;;5.30;;
37657;SDS011;23500;53.268;8.308;2023-07-20T13:05:45;11.00;;;5.38;;
37657;SDS011;23500;53.268;8.308;2023-07-20T13:08:11;9.73;;;4.97;;
37657;SDS011;23500;53.268;8.308;2023-07-20T13:10:37;9.15;;;4.75;;
37657;SDS011;23500;53.268;8.308;2023-07-20T13:13:05;9.13;;;4.63;;
37657;SDS011;23500;53.268;8.308;2023-07-20T13:15:32;10.90;;;5.05;;
37657;SDS011;23500;53.268;8.308;2023-07-20T13:18:05;10.20;;;5.07;;
37657;SDS011;23500;53.268;8.308;2023-07-20T13:20:31;8.68;;;4.65;;
37657;SDS011;23500;53.268;8.308;2023-07-20T13:22:57;8.88;;;4.45;;
37657;SDS011;23500;53.268;8.308;2023-07-20T13:25:22;9.70;;;4.65;;
37657;SDS011;23500;53.268;8.308;2023-07-20T13:27:48;9.07;;;4.30;;
37657;SDS011;23500;53.268;8.308;2023-07-20T13:30:14;8.82;;;4.60;;
37657;SDS011;23500;53.268;8.308;2023-07-20T13:32:44;8.77;;;4.50;;
37657;SDS011;23500;53.268;8.308;2023-07-20T13:35:11;9.52;;;4.90;;
37657;SDS011;23500;53.268;8.308;2023-07-20T13:37:37;9.38;;;4.43;;
37657;SDS011;23500;53.268;8.308;2023-07-20T13:40:02;8.77;;;4.55;;
37657;SDS011;23500;53.268;8.308;2023-07-20T13:42:30;9.93;;;4.53;;
37657;SDS011;23500;53.268;8.308;2023-07-20T13:44:56;9.18;;;4.68;;
37657;SDS011;23500;53.268;8.308;2023-07-20T13:47:22;9.00;;;4.63;;
37657;SDS011;23500;53.268;8.308;2023-07-20T13:49:48;9.80;;;4.30;;
37657;SDS011;23500;53.268;8.308;2023-07-20T13:52:14;11.50;;;5.10;;
37657;SDS011;23500;53.268;8.308;2023-07-20T13:54:39;8.27;;;4.70;;
37657;SDS011;23500;53.268;8.308;2023-07-20T13:57:05;7.43;;;4.35;;
37657;SDS011;23500;53.268;8.308;2023-07-20T13:59:31;6.22;;;4.07;;
37657;SDS011;23500;53.268;8.308;2023-07-20T14:01:57;9.95;;;4.43;;
37657;SDS011;23500;53.268;8.308;2023-07-20T14:04:22;8.57;;;4.55;;
37657;SDS011;23500;53.268;8.308;2023-07-20T14:06:48;7.13;;;3.95;;
37657;SDS011;23500;53.268;8.308;2023-07-20T14:09:15;7.07;;;4.00;;
37657;SDS011;23500;53.268;8.308;2023-07-20T14:11:41;7.22;;;3.97;;
37657;SDS011;23500;53.268;8.308;2023-07-20T14:14:06;8.38;;;4.50;;
37657;SDS011;23500;53.268;8.308;2023-07-20T14:16:32;6.80;;;4.00;;
37657;SDS011;23500;53.268;8.308;2023-07-20T14:18:58;8.50;;;4.40;;
37657;SDS011;23500;53.268;8.308;2023-07-20T14:21:24;7.85;;;4.15;;
37657;SDS011;23500;53.268;8.308;2023-07-20T14:23:50;7.05;;;4.07;;
37657;SDS011;23500;53.268;8.308;2023-07-20T14:26:20;7.13;;;3.55;;
37657;SDS011;23500;53.268;8.308;2023-07-20T14:28:46;5.30;;;3.10;;
37657;SDS011;23500;53.268;8.308;2023-07-20T14:31:12;5.40;;;3.13;;
37657;SDS011;23500;53.268;8.308;2023-07-20T14:33:38;6.18;;;3.17;;
37657;SDS011;23500;53.268;8.308;2023-07-20T14:36:04;6.13;;;3.38;;
37657;SDS011;23500;53.268;8.308;2023-07-20T14:38:30;5.10;;;3.38;;
37657;SDS011;23500;53.268;8.308;2023-07-20T14:40:57;6.55;;;3.17;;
37657;SDS011;23500;53.268;8.308;2023-07-20T14:43:23;5.68;;;3.10;;
37657;SDS011;23500;53.268;8.308;2023-07-20T14:45:48;5.22;;;2.63;;
37657;SDS011;23500;53.268;8.308;2023-07-20T14:48:14;3.97;;;2.40;;
37657;SDS011;23500;53.268;8.308;2023-07-20T14:50:40;5.43;;;2.38;;
37657;SDS011;23500;53.268;8.308;2023-07-20T14:53:05;4.97;;;2.60;;
37657;SDS011;23500;53.268;8.308;2023-07-20T14:55:32;4.97;;;2.72;;